Time;durP1;ratioP1;P1;durP2;ratioP2;P2;SDS_P1;SDS_P2;PMS_P1;PMS_P2;Temp;Humidity;BMP_temperature;BMP_pressure;BME280_temperature;BME280_humidity;BME280_pressure;Samples;Min_cycle;Max_cycle;Signal;HPM_P1;HPM_P2
2024/01/22 00:01:51;;;;;;;22.85;14.57;;;-3.20;99.90;;;;;;5082545;28;20052;-46
2024/01/22 00:04:17;;;;;;;25.85;16.17;;;-3.10;99.90;;;;;;5082136;28;20095;-47
2024/01/22 00:06:42;;;;;;;25.38;17.05;;;-3.00;99.90;;;;;;5080155;28;20036;-47
2024/01/22 00:09:08;;;;;;;25.50;14.73;;;-3.00;99.90;;;;;;5082867;28;20031;-47
2024/01/22 00:11:34;;;;;;;22.63;15.10;;;-3.00;99.90;;;;;;5089050;28;20071;-47
2024/01/22 00:14:00;;;;;;;22.45;15.52;;;-3.00;99.90;;;;;;5092167;28;20659;-47
2024/01/22 00:16:26;;;;;;;26.27;15.55;;;-3.00;99.90;;;;;;5091018;28;20078;-47
2024/01/22 00:18:52;;;;;;;17.95;11.55;;;-3.00;99.90;;;;;;5091687;28;20541;-47
2024/01/22 00:21:18;;;;;;;20.45;10.82;;;-3.20;99.90;;;;;;5092074;28;20123;-48
2024/01/22 00:23:43;;;;;;;13.95;9.48;;;-3.40;99.90;;;;;;5091589;28;20030;-47
2024/01/22 00:26:12;;;;;;;19.75;11.90;;;-3.50;99.90;;;;;;5091743;28;20070;-46
2024/01/22 00:28:41;;;;;;;18.95;11.13;;;-3.50;99.90;;;;;;5091412;28;20071;-48
2024/01/22 00:31:08;;;;;;;19.83;13.38;;;-3.60;99.90;;;;;;5090723;28;20036;-47
2024/01/22 00:33:34;;;;;;;23.88;11.32;;;-3.60;99.90;;;;;;5091754;28;20039;-47
2024/01/22 00:35:59;;;;;;;28.90;13.98;;;-3.50;99.90;;;;;;5091301;28;20052;-46
2024/01/22 00:38:25;;;;;;;40.97;21.02;;;-3.60;99.90;;;;;;5091685;28;20049;-47
2024/01/22 00:40:51;;;;;;;40.50;20.65;;;-3.30;99.90;;;;;;5091193;28;20519;-46
2024/01/22 00:43:16;;;;;;;32.30;18.23;;;-3.20;99.90;;;;;;5091474;28;20431;-46
2024/01/22 00:45:42;;;;;;;30.30;16.25;;;-3.30;99.90;;;;;;5091519;28;20083;-48
2024/01/22 00:48:08;;;;;;;25.48;12.30;;;-3.40;99.90;;;;;;5091397;28;20040;-47
2024/01/22 00:50:34;;;;;;;28.77;16.92;;;-3.60;99.90;;;;;;5055233;28;20072;-47
2024/01/22 00:52:59;;;;;;;29.40;16.17;;;-3.60;99.90;;;;;;5091259;28;20067;-47
2024/01/22 00:55:25;;;;;;;23.70;14.40;;;-3.30;99.90;;;;;;5091471;28;20031;-47
2024/01/22 00:57:51;;;;;;;25.48;16.05;;;-3.20;99.90;;;;;;5091157;28;20040;-47
2024/01/22 01:00:17;;;;;;;25.90;15.68;;;-3.10;99.90;;;;;;5091250;28;20501;-46
2024/01/22 01:02:43;;;;;;;25.02;15.02;;;-3.00;99.90;;;;;;5055159;28;20036;-46
2024/01/22 01:05:08;;;;;;;26.13;15.45;;;-2.90;99.90;;;;;;5091098;28;20046;-48
2024/01/22 01:07:35;;;;;;;24.35;15.05;;;-3.10;99.90;;;;;;5091253;28;20050;-49
2024/01/22 01:10:01;;;;;;;28.90;17.33;;;-3.00;99.90;;;;;;5091227;28;20042;-47
2024/01/22 01:12:27;;;;;;;31.55;18.73;;;;;;;;;;5055225;28;20050;-48
2024/01/22 01:14:53;;;;;;;33.38;20.10;;;;;;;;;;5090772;28;20035;-47
2024/01/22 01:17:19;;;;;;;31.23;20.58;;;;;;;;;;5090707;28;20032;-48
2024/01/22 01:19:45;;;;;;;31.50;19.63;;;-2.80;99.90;;;;;;5091005;28;20040;-48
2024/01/22 01:22:11;;;;;;;26.77;16.80;;;;;;;;;;5090976;28;20066;-48
2024/01/22 01:24:38;;;;;;;31.30;19.65;;;;;;;;;;5054889;28;20043;-47
2024/01/22 01:27:04;;;;;;;23.98;15.07;;;;;;;;;;5058705;28;20127;-48
2024/01/22 01:29:30;;;;;;;24.23;14.52;;;-2.70;99.90;;;;;;5097510;28;20066;-48
2024/01/22 01:31:56;;;;;;;24.02;14.15;;;-2.70;99.90;;;;;;5097388;28;20059;-48
2024/01/22 01:34:21;;;;;;;23.40;13.70;;;-2.70;99.90;;;;;;5028301;28;20138;-47
2024/01/22 01:36:48;;;;;;;22.88;14.77;;;-3.00;99.90;;;;;;5097586;28;20040;-47
2024/01/22 01:39:14;;;;;;;28.00;19.23;;;;;;;;;;5097547;28;20036;-48
2024/01/22 01:41:40;;;;;;;24.08;16.17;;;;;;;;;;5097634;28;20043;-48
2024/01/22 01:44:06;;;;;;;26.17;15.85;;;;;;;;;;5097823;28;20036;-48
2024/01/22 01:46:32;;;;;;;19.88;11.90;;;;;;;;;;5097474;28;20040;-48
2024/01/22 01:48:59;;;;;;;19.55;12.88;;;-2.80;99.90;;;;;;5097260;28;20111;-48
2024/01/22 01:51:25;;;;;;;16.67;11.90;;;-3.00;99.90;;;;;;5097291;28;20028;-48
2024/01/22 01:53:52;;;;;;;19.60;11.80;;;-3.20;99.90;;;;;;5097335;28;20051;-47
2024/01/22 01:56:19;;;;;;;20.88;12.98;;;-3.30;99.90;;;;;;5097298;28;20039;-47
2024/01/22 01:58:45;;;;;;;27.88;16.73;;;-3.50;99.90;;;;;;5097437;28;20035;-47
2024/01/22 02:01:11;;;;;;;23.50;14.32;;;-3.30;99.90;;;;;;5097258;28;20372;-48
2024/01/22 02:03:38;;;;;;;30.73;18.50;;;-3.20;99.90;;;;;;5097174;28;20043;-48
2024/01/22 02:06:04;;;;;;;36.42;23.27;;;-3.20;99.90;;;;;;5078584;28;20080;-48
2024/01/22 02:08:29;;;;;;;41.92;24.25;;;-3.30;99.90;;;;;;5061372;28;20551;-48
2024/01/22 02:10:55;;;;;;;39.72;23.05;;;-3.20;99.90;;;;;;5097537;28;20043;-47
2024/01/22 02:13:21;;;;;;;44.40;27.00;;;-3.30;99.90;;;;;;5097282;28;20499;-48
2024/01/22 02:15:47;;;;;;;41.85;23.45;;;-3.20;99.90;;;;;;5097071;28;20496;-48
2024/01/22 02:18:12;;;;;;;35.90;22.45;;;-2.60;99.90;;;;;;5096774;28;20039;-47
2024/01/22 02:20:38;;;;;;;37.25;21.50;;;;;;;;;;5097103;28;20036;-48
2024/01/22 02:23:05;;;;;;;34.00;20.60;;;;;;;;;;5096943;28;20051;-47
2024/01/22 02:25:31;;;;;;;29.90;20.15;;;;;;;;;;5096951;28;20093;-47
2024/01/22 02:27:57;;;;;;;34.90;24.80;;;;;;;;;;5096865;28;20032;-47
2024/01/22 02:30:24;;;;;;;31.38;17.10;;;;;;;;;;5096367;28;20471;-48
2024/01/22 02:32:49;;;;;;;25.55;16.65;;;-2.80;99.90;;;;;;5096540;28;20485;-48
2024/01/22 02:35:15;;;;;;;30.83;19.00;;;-3.10;99.90;;;;;;5096934;28;20052;-47
2024/01/22 02:37:41;;;;;;;32.42;18.77;;;-3.30;99.90;;;;;;5095323;28;20068;-48
2024/01/22 02:40:07;;;;;;;33.25;21.33;;;-3.20;99.90;;;;;;5093728;28;20075;-47
2024/01/22 02:42:34;;;;;;;36.70;22.90;;;;;;;;;;4991889;28;20068;-47
2024/01/22 02:45:00;;;;;;;36.90;21.77;;;-2.70;99.90;;;;;;5093698;28;20753;-47
2024/01/22 02:47:26;;;;;;;32.17;21.13;;;;;;;;;;5093890;28;20115;-47
2024/01/22 02:49:53;;;;;;;32.03;20.50;;;;;;;;;;5057114;28;20411;-48
2024/01/22 02:52:19;;;;;;;29.00;18.92;;;;;;;;;;5093343;28;20032;-47
2024/01/22 02:54:45;;;;;;;31.25;18.98;;;;;;;;;;5057671;28;20058;-48
2024/01/22 02:57:11;;;;;;;29.60;18.95;;;;;;;;;;5093573;28;20422;-47
2024/01/22 02:59:37;;;;;;;34.45;20.20;;;;;;;;;;5093313;28;20032;-48
2024/01/22 03:02:04;;;;;;;29.45;19.60;;;;;;;;;;5093451;28;20399;-47
2024/01/22 03:04:30;;;;;;;30.15;18.85;;;-1.80;99.90;;;;;;5093267;28;20147;-47
2024/01/22 03:06:56;;;;;;;29.13;17.88;;;-1.70;99.90;;;;;;5075067;28;20111;-48
2024/01/22 03:09:22;;;;;;;24.55;16.25;;;-1.90;99.90;;;;;;5093115;28;20115;-48
2024/01/22 03:11:48;;;;;;;27.02;16.48;;;-1.90;99.90;;;;;;5040576;28;20130;-48
2024/01/22 03:14:13;;;;;;;28.48;16.10;;;-2.10;99.90;;;;;;5093095;28;20511;-48
2024/01/22 03:16:39;;;;;;;29.40;17.38;;;-2.20;99.90;;;;;;5093331;28;20043;-48
2024/01/22 03:19:05;;;;;;;29.75;18.05;;;-1.90;99.90;;;;;;5093031;28;20028;-48
2024/01/22 03:21:31;;;;;;;27.98;18.50;;;-1.80;99.90;;;;;;5092910;28;20059;-47
2024/01/22 03:23:57;;;;;;;33.47;19.08;;;-1.60;99.90;;;;;;5074745;28;20071;-47
2024/01/22 03:26:23;;;;;;;29.85;18.38;;;-1.40;99.90;;;;;;5093142;28;20062;-48
2024/01/22 03:28:52;;;;;;;31.60;18.25;;;-1.40;99.90;;;;;;5073889;28;20190;-48
2024/01/22 03:31:21;;;;;;;30.02;18.10;;;-1.40;99.90;;;;;;5092977;28;20028;-47
2024/01/22 03:33:47;;;;;;;28.75;18.52;;;-1.90;99.90;;;;;;5092947;28;20032;-47
2024/01/22 03:36:13;;;;;;;27.92;18.98;;;-2.30;99.90;;;;;;5077162;28;20045;-48
2024/01/22 03:38:38;;;;;;;32.13;20.98;;;-2.30;99.90;;;;;;5072538;28;20043;-47
2024/01/22 03:41:04;;;;;;;30.20;19.63;;;-2.40;99.90;;;;;;5072750;28;20036;-48
2024/01/22 03:43:30;;;;;;;31.45;20.27;;;-2.40;99.90;;;;;;5072582;28;20048;-48
2024/01/22 03:45:55;;;;;;;29.40;19.27;;;-2.20;99.90;;;;;;5072166;28;20459;-48
2024/01/22 03:48:21;;;;;;;29.42;18.25;;;-1.80;99.90;;;;;;5072261;28;20047;-48
2024/01/22 03:50:47;;;;;;;31.13;20.00;;;-1.60;99.90;;;;;;5071425;28;20480;-48
2024/01/22 03:53:13;;;;;;;31.55;19.80;;;-1.40;99.90;;;;;;5072250;28;20430;-48
2024/01/22 03:55:38;;;;;;;33.33;20.05;;;-1.20;99.90;;;;;;5053156;28;20036;-48
2024/01/22 03:58:04;;;;;;;37.42;22.40;;;-1.10;99.90;;;;;;5072079;28;20426;-48
2024/01/22 04:00:30;;;;;;;37.08;22.10;;;-1.00;99.90;;;;;;5072039;28;20032;-48
2024/01/22 04:02:55;;;;;;;38.65;23.65;;;-1.10;99.90;;;;;;5071973;28;20040;-48
2024/01/22 04:05:21;;;;;;;38.15;22.85;;;-1.30;99.90;;;;;;5072055;28;20055;-48
2024/01/22 04:07:47;;;;;;;42.50;25.83;;;-1.30;99.90;;;;;;5071905;28;20040;-48
2024/01/22 04:10:13;;;;;;;44.92;25.92;;;-1.10;99.90;;;;;;5071781;28;20476;-49
2024/01/22 04:12:39;;;;;;;43.33;26.45;;;-1.00;99.90;;;;;;5071991;28;20032;-48
2024/01/22 04:15:05;;;;;;;37.95;23.85;;;-1.00;99.90;;;;;;5071997;28;20033;-48
2024/01/22 04:17:31;;;;;;;42.30;25.05;;;-0.90;99.90;;;;;;5052687;28;20507;-48
2024/01/22 04:19:56;;;;;;;44.88;25.55;;;-0.90;99.90;;;;;;5069377;28;20044;-48
2024/01/22 04:22:22;;;;;;;37.22;21.27;;;-1.00;99.90;;;;;;5071966;28;20036;-48
2024/01/22 04:24:48;;;;;;;34.35;20.98;;;-1.30;99.90;;;;;;5071617;28;20366;-48
2024/01/22 04:27:14;;;;;;;33.72;20.38;;;-1.90;99.90;;;;;;5071483;28;20119;-48
2024/01/22 04:29:39;;;;;;;35.58;20.42;;;-2.20;99.90;;;;;;5071345;28;20033;-48
2024/01/22 04:32:06;;;;;;;31.58;19.15;;;;;;;;;;5071518;28;20032;-47
2024/01/22 04:34:32;;;;;;;34.35;21.60;;;;;;;;;;5052144;28;20043;-48
2024/01/22 04:36:58;;;;;;;39.10;20.23;;;;;;;;;;5071526;28;20037;-48
2024/01/22 04:39:25;;;;;;;37.95;23.30;;;;;;;;;;5071613;28;20039;-48
2024/01/22 04:41:53;;;;;;;37.15;22.88;;;;;;;;;;5071394;28;20052;-48
2024/01/22 04:44:19;;;;;;;40.05;23.13;;;;;;;;;;5071258;28;20163;-48
2024/01/22 04:46:45;;;;;;;42.13;26.42;;;;;;;;;;5068692;28;20114;-48
2024/01/22 04:49:11;;;;;;;41.40;24.77;;;;;;;;;;5068904;28;20042;-48
2024/01/22 04:51:37;;;;;;;37.72;24.00;;;;;;;;;;5071252;28;20407;-48
2024/01/22 04:54:03;;;;;;;36.85;23.58;;;-2.20;99.90;;;;;;5071045;28;20039;-47
2024/01/22 04:56:28;;;;;;;34.70;21.63;;;-2.20;99.90;;;;;;5019016;28;20037;-48
2024/01/22 04:58:54;;;;;;;34.35;21.27;;;-2.40;99.90;;;;;;5068588;28;20056;-48
2024/01/22 05:01:20;;;;;;;37.58;23.42;;;;;;;;;;5070670;28;20043;-48
2024/01/22 05:03:46;;;;;;;35.42;22.48;;;;;;;;;;5071065;28;20062;-47
2024/01/22 05:06:12;;;;;;;28.58;19.48;;;;;;;;;;5068652;28;20064;-48
2024/01/22 05:08:38;;;;;;;29.23;20.20;;;-3.40;99.90;;;;;;5070753;28;20028;-48
2024/01/22 05:11:04;;;;;;;30.05;17.73;;;-3.40;99.90;;;;;;5070808;28;20039;-47
2024/01/22 05:13:29;;;;;;;29.67;16.77;;;-3.50;99.90;;;;;;5070939;28;20116;-48
2024/01/22 05:15:55;;;;;;;29.27;18.95;;;-3.70;99.90;;;;;;5070315;28;20046;-47
2024/01/22 05:18:21;;;;;;;24.48;15.52;;;-3.80;99.90;;;;;;5002504;28;20040;-48
2024/01/22 05:20:47;;;;;;;27.60;19.10;;;-4.00;99.90;;;;;;5045292;28;20362;-47
2024/01/22 05:23:13;;;;;;;21.45;15.70;;;-3.80;99.90;;;;;;5051914;28;20492;-47
2024/01/22 05:25:39;;;;;;;27.13;18.67;;;-3.90;99.90;;;;;;5070644;28;20040;-48
2024/01/22 05:28:05;;;;;;;30.10;17.48;;;-3.80;99.90;;;;;;5070822;28;20115;-48
2024/01/22 05:30:31;;;;;;;30.58;18.15;;;-4.00;99.90;;;;;;5061313;28;20120;-47
2024/01/22 05:32:57;;;;;;;31.92;20.38;;;;;;;;;;5050825;28;20117;-48
2024/01/22 05:35:23;;;;;;;39.08;21.85;;;;;;;;;;5058869;28;20466;-47
2024/01/22 05:37:50;;;;;;;35.60;21.13;;;;;;;;;;5051398;28;20484;-48
2024/01/22 05:40:16;;;;;;;44.95;24.80;;;-3.00;99.90;;;;;;5070562;28;20048;-47
2024/01/22 05:42:42;;;;;;;50.33;25.63;;;-2.70;99.90;;;;;;5074470;28;20040;-48
2024/01/22 05:45:08;;;;;;;38.65;23.15;;;-2.30;99.90;;;;;;5079761;28;20037;-48
2024/01/22 05:47:34;;;;;;;42.38;28.52;;;-2.00;99.90;;;;;;5079082;28;20032;-48
2024/01/22 05:50:00;;;;;;;41.53;27.48;;;-1.80;99.90;;;;;;5080522;28;20036;-47
2024/01/22 05:52:25;;;;;;;35.10;24.50;;;-2.00;99.90;;;;;;5080368;28;20507;-48
2024/01/22 05:54:51;;;;;;;83.57;47.38;;;-2.00;99.90;;;;;;5089559;28;20032;-48
2024/01/22 05:57:17;;;;;;;122.18;68.03;;;-2.20;99.90;;;;;;5090599;28;20036;-48
2024/01/22 05:59:42;;;;;;;72.28;44.08;;;-1.90;99.90;;;;;;5090532;28;20024;-48
2024/01/22 06:02:08;;;;;;;70.53;41.33;;;-1.50;99.90;;;;;;5090630;28;20026;-48
2024/01/22 06:04:34;;;;;;;60.47;36.83;;;-1.70;99.90;;;;;;5087158;28;20075;-48
2024/01/22 06:06:59;;;;;;;42.28;30.33;;;-1.20;99.90;;;;;;5085799;28;20039;-49
2024/01/22 06:09:25;;;;;;;45.63;29.05;;;-1.40;99.90;;;;;;5082042;28;20028;-47
2024/01/22 06:11:51;;;;;;;37.83;23.70;;;-1.30;99.90;;;;;;5083306;28;20066;-48
2024/01/22 06:14:17;;;;;;;35.88;21.08;;;;;;;;;;5085781;28;20430;-47
2024/01/22 06:16:46;;;;;;;39.83;24.08;;;-2.50;99.90;;;;;;5053002;28;20052;-48
2024/01/22 06:19:11;;;;;;;40.63;25.42;;;-2.50;99.90;;;;;;5083691;28;20032;-49
2024/01/22 06:21:37;;;;;;;41.90;25.60;;;-2.70;99.90;;;;;;5084168;28;20039;-47
2024/01/22 06:24:03;;;;;;;40.47;24.52;;;;;;;;;;5083991;28;20182;-48
2024/01/22 06:26:29;;;;;;;37.45;21.98;;;;;;;;;;5021402;28;20048;-48
2024/01/22 06:28:57;;;;;;;38.38;22.98;;;;;;;;;;5085244;28;20023;-47
2024/01/22 06:31:23;;;;;;;32.92;21.25;;;-3.10;99.90;;;;;;5094118;28;20380;-48
2024/01/22 06:33:49;;;;;;;33.95;19.80;;;-3.30;99.90;;;;;;5080336;28;20039;-46
2024/01/22 06:36:15;;;;;;;35.08;20.90;;;-3.30;99.90;;;;;;5074172;28;20064;-47
2024/01/22 06:38:41;;;;;;;38.88;20.92;;;-3.50;99.90;;;;;;5073333;28;20031;-46
2024/01/22 06:41:11;;;;;;;29.23;17.85;;;-3.70;99.90;;;;;;5073635;28;20078;-46
2024/01/22 06:43:38;;;;;;;39.75;22.77;;;-3.70;99.90;;;;;;5074332;28;20068;-47
2024/01/22 06:46:04;;;;;;;38.25;19.08;;;-3.10;99.90;;;;;;5073733;28;20052;-47
2024/01/22 06:48:30;;;;;;;43.28;24.80;;;;;;;;;;5055146;28;20052;-48
2024/01/22 06:50:56;;;;;;;36.38;23.60;;;;;;;;;;5073505;28;20032;-47
2024/01/22 06:53:22;;;;;;;40.33;26.52;;;2.00;99.90;;;;;;5037628;28;20119;-48
2024/01/22 06:55:48;;;;;;;42.63;27.80;;;3.50;96.40;;;;;;5073340;28;20602;-47
2024/01/22 06:58:14;;;;;;;38.67;25.88;;;5.40;93.50;;;;;;5073151;28;20024;-48
2024/01/22 07:00:39;;;;;;;41.03;26.27;;;7.60;92.80;;;;;;5073354;28;20040;-48
2024/01/22 07:03:05;;;;;;;48.00;30.80;;;;;;;;;;5073415;28;20396;-47
2024/01/22 07:05:33;;;;;;;49.38;31.80;;;8.70;85.90;;;;;;5073022;28;20044;-48
2024/01/22 07:07:58;;;;;;;47.95;32.22;;;9.50;84.30;;;;;;5073083;28;20083;-47
2024/01/22 07:10:25;;;;;;;47.80;31.60;;;;;;;;;;5072936;28;20036;-49
2024/01/22 07:12:50;;;;;;;55.15;33.00;;;11.40;81.80;;;;;;5054130;28;20070;-49
2024/01/22 07:15:16;;;;;;;53.55;31.98;;;10.80;78.30;;;;;;5072795;28;20078;-47
2024/01/22 07:17:42;;;;;;;48.67;34.13;;;11.10;78.90;;;;;;5053836;28;20452;-48
2024/01/22 07:20:12;;;;;;;48.13;30.25;;;11.60;78.90;;;;;;5073097;28;20032;-48
2024/01/22 07:22:54;;;;;;;51.38;36.35;;;11.50;76.80;;;;;;5030197;28;20045;-49
2024/01/22 07:25:20;;;;;;;56.78;41.20;;;12.60;77.40;;;;;;5029836;28;20133;-48
2024/01/22 07:27:46;;;;;;;51.17;39.08;;;13.90;76.90;;;;;;5030103;28;20048;-49
2024/01/22 07:30:12;;;;;;;52.30;38.40;;;14.30;74.80;;;;;;5029986;28;20048;-48
2024/01/22 07:32:39;;;;;;;54.25;37.88;;;;;;;;;;5029955;28;20076;-48
2024/01/22 07:35:09;;;;;;;49.58;35.20;;;12.60;72.70;;;;;;5029845;28;20053;-49
2024/01/22 07:37:41;;;;;;;48.30;34.88;;;12.50;73.10;;;;;;5029977;28;20479;-49
2024/01/22 07:40:09;;;;;;;53.20;38.70;;;;;;;;;;5030036;28;20456;-48
2024/01/22 07:42:35;;;;;;;57.35;40.78;;;12.50;74.10;;;;;;5029663;28;20445;-48
2024/01/22 07:45:01;;;;;;;55.45;40.13;;;13.50;74.00;;;;;;5027030;28;20129;-49
2024/01/22 07:47:27;;;;;;;48.67;34.83;;;14.00;73.90;;;;;;5029697;28;20540;-49
2024/01/22 07:49:54;;;;;;;48.22;34.40;;;;;;;;;;5029842;28;20459;-48
2024/01/22 07:52:21;;;;;;;42.85;33.92;;;14.40;71.70;;;;;;5029623;28;20152;-48
2024/01/22 07:54:48;;;;;;;43.00;31.27;;;;;;;;;;5065994;28;20055;-49
2024/01/22 07:57:14;;;;;;;47.85;33.80;;;16.40;96.40;;;;;;5071723;28;20472;-48
2024/01/22 07:59:41;;;;;;;46.58;33.72;;;17.30;70.30;;;;;;5072440;28;20364;-49
2024/01/22 08:02:07;;;;;;;43.15;33.63;;;;;;;;;;5071901;28;20025;-48
2024/01/22 08:04:34;;;;;;;48.92;37.50;;;17.60;67.90;;;;;;5071677;28;20038;-49
2024/01/22 08:07:00;;;;;;;48.00;37.65;;;16.70;68.80;;;;;;5072063;28;20027;-48
2024/01/22 08:09:30;;;;;;;45.17;36.72;;;16.50;69.10;;;;;;5071769;28;20532;-48
2024/01/22 08:11:56;;;;;;;44.28;35.78;;;15.40;70.00;;;;;;5071977;28;20024;-50
2024/01/22 08:14:22;;;;;;;44.70;34.92;;;16.00;69.80;;;;;;5071576;28;20495;-49
2024/01/22 08:16:49;;;;;;;45.42;36.40;;;16.70;69.60;;;;;;5052841;28;20420;-49
2024/01/22 08:19:15;;;;;;;52.83;37.30;;;16.90;69.20;;;;;;5071777;28;20123;-49
2024/01/22 08:21:41;;;;;;;43.75;34.58;;;;;;;;;;5071451;28;20028;-48
2024/01/22 08:24:07;;;;;;;45.33;34.70;;;18.80;66.80;;;;;;5071396;28;20032;-48
2024/01/22 08:26:33;;;;;;;42.17;32.90;;;17.80;66.60;;;;;;5071387;28;20032;-49
2024/01/22 08:28:59;;;;;;;43.65;34.65;;;18.00;67.30;;;;;;5071515;28;20029;-49
2024/01/22 08:31:24;;;;;;;43.33;33.17;;;18.50;67.40;;;;;;5071227;28;20134;-49
2024/01/22 08:33:50;;;;;;;41.42;31.70;;;18.10;67.20;;;;;;5071547;28;20435;-49
2024/01/22 08:36:16;;;;;;;38.78;31.77;;;18.10;67.00;;;;;;5047267;28;20063;-48
2024/01/22 08:38:42;;;;;;;40.65;32.90;;;17.80;66.10;;;;;;5070171;28;20039;-48
2024/01/22 08:41:10;;;;;;;44.20;34.33;;;18.10;66.90;;;;;;5082551;28;20024;-50
2024/01/22 08:43:36;;;;;;;43.35;33.75;;;18.00;66.90;;;;;;5085095;28;20027;-49
2024/01/22 08:46:02;;;;;;;46.33;36.42;;;18.40;66.60;;;;;;5091177;28;20710;-49
2024/01/22 08:48:30;;;;;;;40.00;32.17;;;18.60;67.00;;;;;;5086314;28;20058;-48
2024/01/22 08:50:57;;;;;;;44.88;32.30;;;16.80;66.20;;;;;;5075708;28;20036;-47
2024/01/22 08:53:22;;;;;;;42.17;31.83;;;17.40;67.50;;;;;;5091166;28;20028;-47
2024/01/22 08:55:48;;;;;;;38.33;30.67;;;17.50;67.50;;;;;;5090595;28;20024;-47
2024/01/22 08:58:15;;;;;;;41.00;31.88;;;15.70;67.30;;;;;;5090870;28;20040;-48
2024/01/22 09:00:41;;;;;;;37.78;31.40;;;16.10;68.30;;;;;;4998355;28;20045;-48
2024/01/22 09:03:07;;;;;;;37.22;31.17;;;16.50;68.60;;;;;;5015108;28;20040;-49
2024/01/22 09:05:33;;;;;;;38.92;31.27;;;17.50;68.50;;;;;;5046986;28;20770;-48
2024/01/22 09:07:59;;;;;;;42.45;35.28;;;16.90;67.80;;;;;;5043130;28;20465;-46
2024/01/22 09:10:26;;;;;;;41.78;33.55;;;16.60;67.90;;;;;;5047713;28;20021;-47
2024/01/22 09:12:52;;;;;;;35.70;29.30;;;18.20;67.30;;;;;;5047801;28;20475;-46
2024/01/22 09:15:18;;;;;;;38.08;30.48;;;17.60;68.60;;;;;;5048064;28;20656;-47
2024/01/22 09:17:44;;;;;;;36.63;30.77;;;17.20;67.80;;;;;;5039095;28;20044;-47
2024/01/22 09:20:10;;;;;;;36.28;32.17;;;17.00;67.60;;;;;;5035183;28;20029;-46
2024/01/22 09:22:37;;;;;;;34.72;31.13;;;16.90;67.40;;;;;;5032247;28;20119;-48
2024/01/22 09:25:05;;;;;;;34.40;29.42;;;16.20;66.70;;;;;;5028136;28;20648;-48
2024/01/22 09:27:30;;;;;;;32.58;28.55;;;15.30;68.30;;;;;;4995408;28;20132;-47
2024/01/22 09:29:56;;;;;;;35.00;27.70;;;16.00;68.20;;;;;;5027816;28;20674;-47
2024/01/22 09:32:22;;;;;;;35.83;30.35;;;15.70;68.30;;;;;;5043431;28;20099;-46
2024/01/22 09:34:47;;;;;;;35.53;27.75;;;16.90;68.50;;;;;;5013995;28;20056;-46
2024/01/22 09:37:14;;;;;;;31.92;26.65;;;17.40;67.80;;;;;;5033061;28;20026;-48
2024/01/22 09:39:39;;;;;;;29.95;25.63;;;17.70;67.80;;;;;;5070373;28;20082;-48
2024/01/22 09:42:06;;;;;;;27.65;23.05;;;16.40;67.30;;;;;;5070548;28;20509;-48
2024/01/22 09:44:33;;;;;;;30.75;25.23;;;14.30;67.10;;;;;;5070364;28;20538;-47
2024/01/22 09:47:01;;;;;;;29.67;25.02;;;13.80;69.50;;;;;;5070636;28;20036;-47
2024/01/22 09:49:26;;;;;;;29.27;23.27;;;13.70;70.60;;;;;;5074505;28;20030;-47
2024/01/22 09:51:52;;;;;;;31.52;24.83;;;14.50;70.20;;;;;;5074525;28;20127;-46
2024/01/22 09:54:20;;;;;;;31.65;25.52;;;;;;;;;;5038864;28;20037;-47
2024/01/22 09:56:54;;;;;;;35.08;26.52;;;15.10;69.90;;;;;;5074049;28;20040;-48
2024/01/22 09:59:21;;;;;;;30.55;26.45;;;;;;;;;;5074349;28;20165;-48
2024/01/22 10:01:48;;;;;;;32.78;27.70;;;16.00;68.00;;;;;;5074354;28;20601;-48
2024/01/22 10:04:15;;;;;;;31.33;26.63;;;15.90;68.40;;;;;;5074420;28;20109;-49
2024/01/22 10:06:41;;;;;;;29.77;25.33;;;15.60;68.60;;;;;;5055162;28;20615;-47
2024/01/22 10:09:07;;;;;;;32.70;26.83;;;16.60;68.60;;;;;;5074298;28;20024;-47
2024/01/22 10:11:33;;;;;;;33.90;27.45;;;14.30;68.70;;;;;;5054909;28;20048;-47
2024/01/22 10:13:59;;;;;;;28.95;25.55;;;13.80;69.50;;;;;;5073878;28;20712;-47
2024/01/22 10:16:26;;;;;;;29.48;24.55;;;13.30;69.50;;;;;;5074207;28;20100;-49
2024/01/22 10:19:11;;;;;;;30.67;23.10;;;;;;;;;;5073788;28;20028;-48
2024/01/22 10:21:38;;;;;;;29.17;24.10;;;14.50;70.70;;;;;;5073942;28;20051;-46
2024/01/22 10:24:09;;;;;;;30.33;24.17;;;15.00;69.80;;;;;;5073653;28;20508;-49
2024/01/22 10:26:35;;;;;;;27.65;23.50;;;15.20;70.00;;;;;;5073960;28;20035;-50
2024/01/22 10:29:19;;;;;;;26.85;22.85;;;14.90;69.10;;;;;;5054841;28;20476;-49
2024/01/22 10:31:56;;;;;;;28.13;21.98;;;15.60;69.70;;;;;;5073707;28;20172;-48
2024/01/22 10:34:30;;;;;;;28.38;22.48;;;16.20;69.10;;;;;;5086131;28;20089;-46
2024/01/22 10:37:06;;;;;;;27.58;23.95;;;;;;;;;;5092738;28;20040;-46
2024/01/22 10:39:33;;;;;;;25.67;22.92;;;14.10;68.50;;;;;;5085932;28;20081;-48
2024/01/22 10:42:14;;;;;;;30.70;23.05;;;14.80;69.70;;;;;;5073301;28;20035;-47
2024/01/22 10:44:42;;;;;;;24.63;21.77;;;15.00;70.30;;;;;;5084106;28;20379;-48
2024/01/22 10:47:09;;;;;;;25.90;21.00;;;15.30;70.10;;;;;;5070011;28;20042;-48
2024/01/22 10:49:35;;;;;;;24.80;21.15;;;14.60;69.80;;;;;;5093339;28;20068;-47
2024/01/22 10:52:03;;;;;;;24.48;21.85;;;14.00;69.80;;;;;;5093114;28;20074;-48
2024/01/22 10:54:29;;;;;;;28.92;21.90;;;14.10;71.00;;;;;;5093093;28;20547;-49
2024/01/22 10:57:04;;;;;;;27.20;21.13;;;14.80;70.80;;;;;;5056079;28;20111;-47
2024/01/22 10:59:33;;;;;;;26.98;20.70;;;15.80;70.50;;;;;;5088213;28;20101;-46
2024/01/22 11:01:59;;;;;;;30.00;23.40;;;14.80;69.60;;;;;;5090186;28;20034;-48
2024/01/22 11:04:37;;;;;;;33.88;26.52;;;14.30;70.90;;;;;;5092347;28;20413;-48
2024/01/22 11:07:06;;;;;;;26.55;22.13;;;14.10;71.90;;;;;;5092964;28;20063;-49
2024/01/22 11:09:33;;;;;;;30.73;24.80;;;14.70;71.80;;;;;;5090310;28;20043;-49
2024/01/22 11:12:14;;;;;;;31.08;24.38;;;14.70;71.50;;;;;;5057166;28;20088;-47
2024/01/22 11:14:41;;;;;;;28.30;22.02;;;14.50;71.90;;;;;;5092938;28;20035;-45
2024/01/22 11:17:09;;;;;;;30.48;23.73;;;14.90;71.20;;;;;;5092993;28;20042;-46
2024/01/22 11:19:36;;;;;;;28.15;21.85;;;14.50;70.80;;;;;;5053467;28;20035;-48
2024/01/22 11:22:19;;;;;;;27.75;21.40;;;14.50;71.00;;;;;;5086777;28;20036;-49
2024/01/22 11:25:01;;;;;;;33.15;27.38;;;;;;;;;;5092828;28;20046;-48
2024/01/22 11:27:47;;;;;;;33.92;25.27;;;13.50;70.80;;;;;;5092744;28;20055;-48
2024/01/22 11:30:27;;;;;;;38.13;28.52;;;12.80;72.00;;;;;;5092628;28;20399;-48
2024/01/22 11:32:53;;;;;;;37.45;27.92;;;12.60;73.40;;;;;;5093069;28;20046;-48
2024/01/22 11:35:37;;;;;;;31.65;24.45;;;11.70;72.30;;;;;;5090957;28;20408;-49
2024/01/22 11:38:04;;;;;;;33.08;24.58;;;11.60;73.30;;;;;;5019162;28;20067;-49
2024/01/22 11:40:46;;;;;;;32.25;24.95;;;12.10;73.70;;;;;;5052342;28;20048;-49
2024/01/22 11:43:12;;;;;;;34.85;26.35;;;11.70;73.80;;;;;;5071311;28;20048;-47
2024/01/22 11:45:38;;;;;;;31.45;23.73;;;12.90;74.90;;;;;;5071294;28;20040;-48
2024/01/22 11:48:17;;;;;;;29.02;22.90;;;12.60;73.60;;;;;;5019290;28;20595;-48
2024/01/22 11:50:55;;;;;;;31.58;23.77;;;12.50;73.30;;;;;;5071175;28;20037;-48
2024/01/22 11:53:21;;;;;;;31.77;23.80;;;12.80;74.00;;;;;;5054957;28;20102;-48
2024/01/22 11:56:01;;;;;;;32.33;24.35;;;13.20;73.70;;;;;;5071217;28;20025;-49
2024/01/22 11:58:28;;;;;;;33.50;25.35;;;12.80;73.90;;;;;;5071007;28;20028;-48
2024/01/22 12:00:53;;;;;;;32.33;25.33;;;13.00;74.40;;;;;;5071169;28;20028;-48
2024/01/22 12:03:27;;;;;;;30.30;23.08;;;13.70;74.00;;;;;;5071130;28;20346;-48
2024/01/22 12:06:00;;;;;;;32.28;24.27;;;13.20;74.00;;;;;;5070835;28;20044;-47
2024/01/22 12:08:26;;;;;;;34.45;26.05;;;13.50;74.40;;;;;;5070824;28;20444;-47
2024/01/22 12:10:56;;;;;;;35.05;24.83;;;13.60;73.90;;;;;;5069875;28;20388;-49
2024/01/22 12:13:23;;;;;;;31.27;24.85;;;13.60;74.10;;;;;;5035052;28;20052;-46
2024/01/22 12:15:56;;;;;;;31.52;24.33;;;13.90;73.60;;;;;;5070897;28;20048;-49
2024/01/22 12:18:25;;;;;;;30.95;21.67;;;13.30;73.60;;;;;;5070276;28;20044;-49
2024/01/22 12:20:51;;;;;;;33.70;26.05;;;;;;;;;;5070793;28;20124;-47
2024/01/22 12:23:31;;;;;;;33.00;26.08;;;11.70;74.60;;;;;;5071014;28;20093;-49
2024/01/22 12:25:57;;;;;;;39.33;28.23;;;;;;;;;;5034727;28;20054;-47
2024/01/22 12:28:43;;;;;;;35.47;26.75;;;11.70;79.30;;;;;;5047690;28;20036;-47
2024/01/22 12:31:09;;;;;;;36.45;26.52;;;11.30;77.20;;;;;;5065569;28;20054;-47
2024/01/22 12:33:35;;;;;;;34.97;24.70;;;;;;;;;;5067504;28;20115;-48
2024/01/22 12:36:04;;;;;;;35.58;25.20;;;;;;;;;;5067485;28;20592;-47
2024/01/22 12:38:33;;;;;;;35.50;25.30;;;;;;;;;;5051076;28;20040;-48
2024/01/22 12:41:00;;;;;;;36.20;27.05;;;10.30;78.60;;;;;;5068194;28;20107;-48
2024/01/22 12:43:28;;;;;;;31.77;22.75;;;10.20;79.10;;;;;;5035343;28;20064;-47
2024/01/22 12:46:07;;;;;;;35.58;23.90;;;;;;;;;;5018600;28;20060;-48
2024/01/22 12:48:33;;;;;;;32.75;22.10;;;;;;;;;;5068467;28;20849;-50